Time;durP1;ratioP1;P1;durP2;ratioP2;P2;SDS_P1;SDS_P2;PMS_P1;PMS_P2;Temp;Humidity;BMP_temperature;BMP_pressure;BME280_temperature;BME280_humidity;BME280_pressure;Samples;Min_cycle;Max_cycle;Signal;HPM_P1;HPM_P2
2022/02/16 00:46:10;;;;;;;0.40;0.23;;;;;;;5.35;100.00;99319.66;5072939;28;20213;-72
2022/02/16 00:48:36;;;;;;;0.70;0.70;;;;;;;5.34;100.00;99303.69;5069956;28;20626;-72
2022/02/16 00:51:01;;;;;;;0.37;0.37;;;;;;;5.35;100.00;99305.28;5071455;28;20231;-72
2022/02/16 00:53:26;;;;;;;3.20;1.30;;;;;;;5.35;100.00;99299.88;5073067;28;20174;-73
2022/02/16 00:55:52;;;;;;;0.50;0.50;;;;;;;5.34;100.00;99292.88;5072977;28;20630;-72
2022/02/16 00:58:17;;;;;;;0.40;0.40;;;;;;;5.36;100.00;99315.84;5073275;28;20201;-72
2022/02/16 01:00:43;;;;;;;0.20;0.20;;;;;;;5.37;100.00;99297.69;5071439;28;20281;-72
2022/02/16 01:03:08;;;;;;;0.40;0.40;;;;;;;5.37;100.00;99289.56;5072688;28;20639;-72
2022/02/16 01:05:33;;;;;;;5.20;0.40;;;;;;;5.37;100.00;99308.53;5072549;28;20236;-72
2022/02/16 01:07:59;;;;;;;0.10;0.10;;;;;;;5.36;100.00;99282.56;5072711;28;20179;-72
2022/02/16 01:10:24;;;;;;;0.07;0.00;;;;;;;5.36;100.00;99296.09;5072634;28;20595;-72
2022/02/16 01:12:49;;;;;;;0.40;0.40;;;;;;;5.41;100.00;99284.34;5072607;28;20185;-72
2022/02/16 01:15:16;;;;;;;0.73;0.73;;;;;;;5.40;100.00;99283.53;5072592;28;20182;-72
2022/02/16 01:17:42;;;;;;;0.47;0.37;;;;;;;5.41;100.00;99285.13;5072537;28;20175;-73
2022/02/16 01:20:08;;;;;;;0.63;0.37;;;;;;;5.37;100.00;99282.25;5072500;28;20221;-72
2022/02/16 01:22:34;;;;;;;0.70;0.50;;;;;;;5.37;100.00;99270.59;5072526;28;20202;-72
2022/02/16 01:24:59;;;;;;;0.10;0.10;;;;;;;5.36;100.00;99267.09;5070908;28;20180;-72
2022/02/16 01:27:25;;;;;;;0.53;0.53;;;;;;;5.43;100.00;99268.56;5072442;28;20179;-72
2022/02/16 01:29:50;;;;;;;1.50;0.70;;;;;;;5.44;100.00;99264.75;5072618;28;20178;-72
2022/02/16 01:32:16;;;;;;;2.13;0.60;;;;;;;5.47;100.00;99262.22;5072141;28;20206;-72
2022/02/16 01:34:41;;;;;;;0.53;0.43;;;;;;;5.47;100.00;99259.53;5072101;28;20257;-73
2022/02/16 01:37:06;;;;;;;0.13;0.13;;;;;;;5.49;100.00;99256.50;5072291;28;20339;-72
2022/02/16 01:39:33;;;;;;;0.20;0.20;;;;;;;5.47;100.00;99242.47;5070988;28;20206;-72
2022/02/16 01:41:59;;;;;;;6.10;0.33;;;;;;;5.50;100.00;99242.69;5070891;28;20289;-72
2022/02/16 01:44:24;;;;;;;1.03;0.50;;;;;;;5.51;100.00;99228.03;5072248;28;20174;-72
2022/02/16 01:46:59;;;;;;;0.47;0.30;;;;;;;5.55;100.00;99230.91;5071918;28;20171;-72
2022/02/16 01:49:24;;;;;;;0.50;0.50;;;;;;;5.54;100.00;99227.41;5072156;28;20173;-72
2022/02/16 01:51:50;;;;;;;1.70;0.43;;;;;;;5.53;100.00;99214.97;5070816;28;20261;-73
2022/02/16 01:54:15;;;;;;;0.13;0.13;;;;;;;5.56;100.00;99211.63;5071939;28;20178;-72
2022/02/16 01:56:45;;;;;;;0.97;0.63;;;;;;;5.54;100.00;99199.50;5072211;28;20175;-72
2022/02/16 01:59:11;;;;;;;0.30;0.30;;;;;;;5.59;100.00;99202.09;5072412;28;20201;-71
2022/02/16 02:01:38;;;;;;;0.90;0.50;;;;;;;5.60;100.00;99184.72;5080650;28;20751;-72
2022/02/16 02:04:04;;;;;;;0.47;0.10;;;;;;;5.60;100.00;99195.56;5072651;28;20694;-72
2022/02/16 02:06:29;;;;;;;0.17;0.10;;;;;;;5.59;100.00;99197.47;5072593;28;20257;-72
2022/02/16 02:08:55;;;;;;;0.20;0.20;;;;;;;5.60;100.00;99182.00;5072134;28;20252;-72
2022/02/16 02:11:20;;;;;;;0.10;0.10;;;;;;;5.61;100.00;99172.78;5071721;28;20176;-72
2022/02/16 02:13:54;;;;;;;0.40;0.30;;;;;;;5.62;100.00;99169.75;5071927;28;20178;-72
2022/02/16 02:16:19;;;;;;;0.30;0.30;;;;;;;5.64;100.00;99178.41;5071270;28;20252;-72
2022/02/16 02:18:45;;;;;;;1.30;1.20;;;;;;;5.65;100.00;99168.34;5071667;28;20282;-72
2022/02/16 02:21:11;;;;;;;0.50;0.50;;;;;;;5.64;100.00;99175.69;5071720;28;20217;-72
2022/02/16 02:23:36;;;;;;;0.20;0.20;;;;;;;5.66;100.00;99178.09;5071260;28;20641;-72
2022/02/16 02:26:02;;;;;;;0.87;0.40;;;;;;;5.70;100.00;99162.78;5071010;28;20182;-72
2022/02/16 02:28:27;;;;;;;0.67;0.67;;;;;;;5.67;100.00;99076.72;5071826;28;20665;-72
2022/02/16 02:30:54;;;;;;;2.77;0.53;;;;;;;5.69;100.00;99155.78;5071245;28;20236;-72
2022/02/16 02:33:19;;;;;;;0.30;0.30;;;;;;;5.74;100.00;99155.63;5070977;28;20534;-72
2022/02/16 02:35:45;;;;;;;0.30;0.30;;;;;;;5.74;100.00;99158.34;5070804;28;20630;-72
2022/02/16 02:38:10;;;;;;;1.27;0.50;;;;;;;5.75;100.00;99146.41;5070938;28;20179;-72
2022/02/16 02:40:35;;;;;;;2.57;0.70;;;;;;;5.78;100.00;99128.72;5070869;28;20174;-72
2022/02/16 02:43:01;;;;;;;0.40;0.40;;;;;;;5.76;100.00;99130.94;5070784;28;20540;-72
2022/02/16 02:45:26;;;;;;;1.80;0.60;;;;;;;5.72;100.00;99130.75;5070623;28;20170;-72
2022/02/16 02:47:52;;;;;;;0.40;0.40;;;;;;;5.76;100.00;99115.47;5070713;28;20170;-72
2022/02/16 02:50:18;;;;;;;0.50;0.40;;;;;;;5.73;100.00;99109.88;5071041;28;20185;-72
2022/02/16 02:52:43;;;;;;;0.87;0.87;;;;;;;5.77;100.00;99110.84;5071260;28;20436;-72
2022/02/16 02:55:11;;;;;;;0.07;0.00;;;;;;;5.78;100.00;99113.25;5070434;28;20178;-72
2022/02/16 02:57:37;;;;;;;0.13;0.13;;;;;;;5.77;100.00;99111.66;5070827;28;20551;-72
2022/02/16 03:00:06;;;;;;;0.20;0.20;;;;;;;5.78;100.00;99104.31;5070612;28;20229;-72
2022/02/16 03:02:31;;;;;;;0.50;0.50;;;;;;;5.76;100.00;99103.84;5070511;28;20642;-72
2022/02/16 03:04:56;;;;;;;0.10;0.10;;;;;;;5.79;100.00;99103.25;5070454;28;20257;-72
2022/02/16 03:07:22;;;;;;;0.10;0.10;;;;;;;5.76;100.00;99099.22;5070571;28;20170;-72
2022/02/16 03:09:47;;;;;;;0.03;0.03;;;;;;;5.77;100.00;99106.22;5070503;28;20645;-72
2022/02/16 03:12:12;;;;;;;0.30;0.30;;;;;;;5.77;100.00;99079.13;5070314;28;20218;-72
2022/02/16 03:14:38;;;;;;;0.73;0.20;;;;;;;5.77;100.00;99089.19;5070406;28;20182;-72
2022/02/16 03:17:04;;;;;;;0.37;0.37;;;;;;;5.80;100.00;99086.66;5070611;28;20175;-72
2022/02/16 03:19:29;;;;;;;0.23;0.23;;;;;;;5.81;100.00;99090.97;5070446;28;20283;-72
2022/02/16 03:21:55;;;;;;;0.60;0.60;;;;;;;5.80;100.00;99086.66;5070277;28;20202;-72
2022/02/16 03:24:20;;;;;;;0.63;0.63;;;;;;;5.80;100.00;99053.34;5070349;28;20531;-72
2022/02/16 03:26:46;;;;;;;0.00;0.00;;;;;;;5.82;100.00;99005.84;5070128;28;20240;-73
2022/02/16 03:29:11;;;;;;;0.50;0.50;;;;;;;5.81;100.00;99077.41;5070287;28;20561;-72
2022/02/16 03:31:37;;;;;;;0.50;0.50;;;;;;;5.81;100.00;99069.28;5070260;28;20301;-72
2022/02/16 03:34:03;;;;;;;0.30;0.30;;;;;;;5.82;100.00;99065.47;5070640;28;20185;-72
2022/02/16 03:36:28;;;;;;;0.13;0.13;;;;;;;5.88;100.00;99072.31;5070569;28;20178;-72
2022/02/16 03:38:54;;;;;;;0.50;0.50;;;;;;;5.84;100.00;99051.59;5070102;28;20189;-72
2022/02/16 03:41:20;;;;;;;0.40;0.40;;;;;;;5.87;100.00;99049.06;5070323;28;20211;-72
2022/02/16 03:43:45;;;;;;;0.33;0.33;;;;;;;5.85;100.00;99043.16;5070242;28;20241;-72
2022/02/16 03:46:11;;;;;;;0.00;0.00;;;;;;;5.93;100.00;99053.25;5070082;28;20261;-72
2022/02/16 03:48:36;;;;;;;0.20;0.20;;;;;;;5.94;100.00;99057.56;5070198;28;20174;-72
2022/02/16 03:51:02;;;;;;;0.40;0.40;;;;;;;5.93;100.00;99053.25;5070257;28;20182;-72
2022/02/16 03:53:27;;;;;;;1.90;0.40;;;;;;;5.96;100.00;99057.25;5063514;28;20193;-72
2022/02/16 03:55:52;;;;;;;0.47;0.40;;;;;;;6.00;100.00;99038.44;5070118;28;20214;-73
2022/02/16 03:58:18;;;;;;;0.40;0.40;;;;;;;5.99;100.00;99047.69;5070167;28;20257;-72
2022/02/16 04:00:43;;;;;;;0.20;0.17;;;;;;;5.98;100.00;99041.47;5070243;28;20209;-72
2022/02/16 04:03:09;;;;;;;0.10;0.10;;;;;;;6.03;100.00;99048.63;5070281;28;20577;-72
2022/02/16 04:05:35;;;;;;;0.30;0.30;;;;;;;6.02;100.00;99037.00;5071051;28;20186;-72
2022/02/16 04:08:01;;;;;;;0.53;0.40;;;;;;;6.03;100.00;99035.88;5074066;28;20496;-72
2022/02/16 04:10:26;;;;;;;0.40;0.30;;;;;;;6.08;100.00;99024.09;5074238;28;20208;-72
2022/02/16 04:12:51;;;;;;;0.20;0.20;;;;;;;6.09;100.00;99036.56;5074145;28;20228;-72
2022/02/16 04:15:17;;;;;;;0.10;0.10;;;;;;;6.13;100.00;99026.66;5073902;28;20206;-72
2022/02/16 04:17:42;;;;;;;0.10;0.10;;;;;;;6.15;100.00;99027.13;5073908;28;20177;-72
2022/02/16 04:20:11;;;;;;;0.60;0.60;;;;;;;6.11;100.00;99018.06;5073744;28;20685;-72
2022/02/16 04:22:46;;;;;;;0.83;0.53;;;;;;;6.11;100.00;99013.41;5073835;28;20210;-72
2022/02/16 04:25:13;;;;;;;0.90;0.60;;;;;;;6.09;100.00;99012.16;5073508;28;20225;-72
2022/02/16 04:27:39;;;;;;;0.30;0.30;;;;;;;6.12;100.00;99008.78;5073758;28;20229;-73
2022/02/16 04:30:05;;;;;;;0.10;0.10;;;;;;;6.15;100.00;99000.03;5073651;28;20639;-72
2022/02/16 04:32:31;;;;;;;0.40;0.40;;;;;;;6.16;100.00;99001.63;5073890;28;20676;-71
2022/02/16 04:34:58;;;;;;;0.20;0.20;;;;;;;6.18;100.00;99005.59;5073628;28;20218;-73
2022/02/16 04:37:24;;;;;;;0.60;0.60;;;;;;;6.18;100.00;98994.75;5073608;28;20657;-73
2022/02/16 04:39:49;;;;;;;0.10;0.10;;;;;;;6.15;100.00;98981.03;5073622;28;20170;-72
2022/02/16 04:42:15;;;;;;;0.33;0.33;;;;;;;6.15;100.00;98991.88;5073499;28;20658;-72
2022/02/16 04:44:41;;;;;;;0.10;0.10;;;;;;;6.12;100.00;98993.31;5073323;28;20206;-72
2022/02/16 04:47:07;;;;;;;0.10;0.10;;;;;;;6.12;100.00;98973.56;5073322;28;20468;-72
2022/02/16 04:49:32;;;;;;;0.00;0.00;;;;;;;6.12;100.00;98978.97;5073270;28;20805;-73
2022/02/16 04:51:58;;;;;;;0.37;0.20;;;;;;;6.10;100.00;98979.28;5073263;28;20167;-72
2022/02/16 04:54:23;;;;;;;2.00;1.80;;;;;;;6.01;100.00;98958.69;5073144;28;20179;-72
2022/02/16 04:56:49;;;;;;;0.87;0.87;;;;;;;6.01;100.00;98967.63;5073350;28;20182;-72
2022/02/16 04:59:15;;;;;;;0.00;0.00;;;;;;;6.02;100.00;98957.59;5073489;28;20171;-74
2022/02/16 05:01:41;;;;;;;0.13;0.13;;;;;;;6.02;100.00;98949.44;5073122;28;20719;-72
2022/02/16 05:04:06;;;;;;;0.20;0.20;;;;;;;6.04;100.00;98948.00;5073024;28;20179;-73
2022/02/16 05:06:34;;;;;;;0.10;0.10;;;;;;;6.05;100.00;98957.75;5072859;28;20178;-72
2022/02/16 05:09:00;;;;;;;0.10;0.07;;;;;;;6.04;100.00;98945.31;5072975;28;20170;-72
2022/02/16 05:11:25;;;;;;;0.40;0.40;;;;;;;6.04;100.00;98941.78;5072902;28;20583;-72
2022/02/16 05:13:50;;;;;;;0.10;0.10;;;;;;;6.03;100.00;98923.94;5072579;28;20220;-73
2022/02/16 05:16:16;;;;;;;0.83;0.40;;;;;;;6.03;100.00;98923.94;5072553;28;20179;-72
2022/02/16 05:18:41;;;;;;;0.20;0.20;;;;;;;6.00;100.00;98911.03;5072777;28;20224;-72
2022/02/16 05:21:07;;;;;;;1.10;0.40;;;;;;;6.01;100.00;98915.31;5072622;28;20202;-72
2022/02/16 05:23:32;;;;;;;0.10;0.10;;;;;;;6.00;100.00;98903.69;5073029;28;20178;-72
2022/02/16 05:25:57;;;;;;;0.00;0.00;;;;;;;6.00;100.00;98908.31;5071105;28;20269;-72
2022/02/16 05:28:23;;;;;;;0.40;0.40;;;;;;;6.00;100.00;98892.84;5072626;28;20181;-73
2022/02/16 05:30:49;;;;;;;0.40;0.40;;;;;;;6.01;100.00;98882.81;5072569;28;20647;-73
2022/02/16 05:33:14;;;;;;;0.20;0.20;;;;;;;6.01;100.00;98886.31;5072644;28;20201;-73
2022/02/16 05:35:40;;;;;;;0.40;0.40;;;;;;;5.96;100.00;98865.59;5072598;28;20206;-72
2022/02/16 05:38:06;;;;;;;0.77;0.50;;;;;;;6.04;100.00;98860.47;5072635;28;20584;-72
2022/02/16 05:40:31;;;;;;;0.20;0.20;;;;;;;6.06;100.00;98874.50;5072405;28;20166;-72
2022/02/16 05:42:57;;;;;;;0.50;0.30;;;;;;;6.09;100.00;98860.31;5072384;28;20174;-72
2022/02/16 05:45:22;;;;;;;0.50;0.50;;;;;;;6.12;100.00;98835.28;5072592;28;20170;-72
2022/02/16 05:47:48;;;;;;;0.30;0.30;;;;;;;6.17;100.00;98859.50;5072226;28;20619;-73
2022/02/16 05:50:13;;;;;;;0.27;0.27;;;;;;;6.18;100.00;98866.50;5072179;28;20170;-72
2022/02/16 05:52:38;;;;;;;0.03;0.00;;;;;;;6.19;100.00;98851.84;5072181;28;20235;-72
2022/02/16 05:55:05;;;;;;;0.30;0.30;;;;;;;6.23;100.00;98848.19;5070628;28;20178;-72
2022/02/16 05:57:32;;;;;;;0.10;0.10;;;;;;;6.22;100.00;98849.31;5072049;28;20175;-73
2022/02/16 05:59:57;;;;;;;0.77;0.50;;;;;;;6.23;100.00;98839.25;5071919;28;20179;-73
2022/02/16 06:02:22;;;;;;;0.10;0.10;;;;;;;6.29;100.00;98834.44;5070623;28;20722;-72
2022/02/16 06:04:48;;;;;;;0.30;0.30;;;;;;;6.30;100.00;98831.41;5070532;28;20217;-72
2022/02/16 06:07:13;;;;;;;0.37;0.37;;;;;;;6.30;100.00;98825.97;5071922;28;20277;-72
2022/02/16 06:09:38;;;;;;;0.10;0.03;;;;;;;6.34;100.00;98823.41;5071805;28;20174;-73
2022/02/16 06:12:04;;;;;;;0.03;0.03;;;;;;;6.33;100.00;98813.69;5071690;28;20174;-73
2022/02/16 06:14:30;;;;;;;0.27;0.27;;;;;;;6.32;100.00;98814.81;5071784;28;20217;-72
2022/02/16 06:16:55;;;;;;;0.40;0.40;;;;;;;6.32;100.00;98818.31;5071616;28;20317;-72
2022/02/16 06:19:20;;;;;;;0.10;0.10;;;;;;;6.33;100.00;98808.25;5070277;28;20171;-72
2022/02/16 06:21:46;;;;;;;0.30;0.30;;;;;;;6.36;100.00;98830.09;5071556;28;20289;-72
2022/02/16 06:24:12;;;;;;;0.30;0.30;;;;;;;6.35;100.00;98816.88;5071558;28;20213;-72
2022/02/16 06:26:37;;;;;;;1.00;0.33;;;;;;;6.35;100.00;98806.03;5071269;28;20193;-72
2022/02/16 06:29:02;;;;;;;0.37;0.37;;;;;;;6.33;100.00;98794.69;5070914;28;20620;-72
2022/02/16 06:31:28;;;;;;;0.10;0.10;;;;;;;6.37;100.00;98792.97;5071405;28;20610;-72
2022/02/16 06:33:53;;;;;;;0.57;0.40;;;;;;;6.36;100.00;98777.78;5071311;28;20175;-72
2022/02/16 06:36:19;;;;;;;0.00;0.00;;;;;;;6.40;100.00;98789.59;5071399;28;20583;-72
2022/02/16 06:38:44;;;;;;;0.30;0.30;;;;;;;6.41;100.00;98789.25;5071450;28;20166;-72
2022/02/16 06:41:09;;;;;;;2.23;0.40;;;;;;;6.43;100.00;98775.38;5071145;28;20216;-72
2022/02/16 06:43:35;;;;;;;0.20;0.20;;;;;;;6.43;100.00;98765.31;5071459;28;20202;-71
2022/02/16 06:46:01;;;;;;;0.17;0.17;;;;;;;6.48;100.00;98762.41;5070190;28;20673;-71
2022/02/16 06:48:27;;;;;;;1.43;0.97;;;;;;;6.41;100.00;98774.91;5071210;28;20182;-72
2022/02/16 06:50:53;;;;;;;0.83;0.40;;;;;;;6.47;100.00;98755.41;5071142;28;20175;-72
2022/02/16 06:53:19;;;;;;;1.07;0.43;;;;;;;6.45;100.00;98752.22;5071128;28;20174;-72
2022/02/16 06:55:44;;;;;;;1.43;0.90;;;;;;;6.46;100.00;98756.53;5071215;28;20273;-71
2022/02/16 06:58:09;;;;;;;0.80;0.80;;;;;;;6.48;100.00;98761.63;5071214;28;20178;-72
2022/02/16 07:00:35;;;;;;;2.93;0.73;;;;;;;6.51;100.00;98759.06;5071039;28;20167;-72
2022/02/16 07:03:01;;;;;;;0.90;0.83;;;;;;;6.57;100.00;98755.03;5070812;28;20505;-72
2022/02/16 07:05:26;;;;;;;0.20;0.20;;;;;;;6.63;100.00;98746.72;5069370;28;20710;-71
2022/02/16 07:07:51;;;;;;;0.30;0.20;;;;;;;6.66;100.00;98752.31;5070889;28;20231;-72
2022/02/16 07:10:17;;;;;;;0.80;0.50;;;;;;;6.66;100.00;98740.66;5070867;28;20265;-72
2022/02/16 07:12:42;;;;;;;0.30;0.30;;;;;;;6.65;100.00;98723.56;5070547;28;20177;-71
2022/02/16 07:15:11;;;;;;;0.30;0.30;;;;;;;6.63;100.00;98714.16;5070634;28;20179;-72
2022/02/16 07:17:41;;;;;;;0.23;0.23;;;;;;;6.69;100.00;98707.44;5070791;28;20170;-72
2022/02/16 07:20:11;;;;;;;0.20;0.20;;;;;;;6.70;100.00;98698.16;5070735;28;20521;-72
2022/02/16 07:22:41;;;;;;;0.37;0.37;;;;;;;6.72;100.00;98698.63;5070785;28;20245;-72
2022/02/16 07:25:07;;;;;;;0.10;0.10;;;;;;;6.75;100.00;98703.38;5070516;28;20253;-74
2022/02/16 07:27:32;;;;;;;0.50;0.17;;;;;;;6.82;100.00;98679.25;5070650;28;20216;-73
2022/02/16 07:29:57;;;;;;;0.00;0.00;;;;;;;6.88;100.00;98685.28;5070672;28;20736;-72
2022/02/16 07:32:23;;;;;;;0.43;0.43;;;;;;;6.89;99.89;98686.84;5070651;28;20185;-72
2022/02/16 07:34:48;;;;;;;0.00;0.00;;;;;;;6.97;99.44;98681.38;5070825;28;20175;-73
2022/02/16 07:37:13;;;;;;;0.37;0.37;;;;;;;6.99;99.38;98689.19;5069615;28;20213;-75
2022/02/16 07:39:39;;;;;;;0.30;0.30;;;;;;;7.02;99.16;98675.75;5069170;28;20684;-75
2022/02/16 07:42:04;;;;;;;0.10;0.10;;;;;;;7.06;98.76;98676.66;5074518;28;20289;-73
2022/02/16 07:44:30;;;;;;;0.10;0.10;;;;;;;7.03;99.34;98680.03;5074644;28;20184;-72
2022/02/16 07:46:55;;;;;;;0.30;0.30;;;;;;;7.01;100.00;98667.94;5074716;28;20240;-72
2022/02/16 07:49:21;;;;;;;0.57;0.20;;;;;;;6.95;100.00;98655.69;5071360;28;20186;-71
2022/02/16 07:51:46;;;;;;;0.30;0.30;;;;;;;6.93;100.00;98649.78;5074469;28;20178;-72
2022/02/16 07:54:11;;;;;;;0.30;0.20;;;;;;;6.93;100.00;98642.41;5074231;28;20182;-73
2022/02/16 07:56:38;;;;;;;0.00;0.00;;;;;;;6.92;100.00;98642.75;5073314;28;20178;-73
2022/02/16 07:59:04;;;;;;;0.03;0.03;;;;;;;6.91;100.00;98625.69;5071086;28;20261;-74
2022/02/16 08:01:29;;;;;;;0.10;0.10;;;;;;;6.85;100.00;98627.00;5073219;28;20277;-73
2022/02/16 08:04:15;;;;;;;0.10;0.10;;;;;;;6.89;100.00;98611.66;5073133;28;20181;-72
2022/02/16 08:06:40;;;;;;;0.10;0.10;;;;;;;6.88;100.00;98612.78;5074072;28;20206;-72
2022/02/16 08:09:05;;;;;;;0.10;0.10;;;;;;;6.89;100.00;98608.94;5074190;28;20654;-72
2022/02/16 08:11:30;;;;;;;0.10;0.07;;;;;;;6.92;100.00;98610.19;5073997;28;20649;-72
2022/02/16 08:13:55;;;;;;;0.10;0.10;;;;;;;6.92;100.00;98619.13;5073734;28;20206;-72
2022/02/16 08:16:21;;;;;;;2.57;0.40;;;;;;;6.89;100.00;98608.13;5069972;28;20269;-72
2022/02/16 08:18:46;;;;;;;0.10;0.10;;;;;;;6.84;100.00;98603.72;5073504;28;20182;-72
2022/02/16 08:21:12;;;;;;;0.30;0.30;;;;;;;6.80;100.00;98594.66;5074003;28;20226;-72
2022/02/16 08:23:37;;;;;;;0.30;0.30;;;;;;;6.78;100.00;98575.97;5073799;28;20673;-73
2022/02/16 08:26:02;;;;;;;0.30;0.30;;;;;;;6.75;100.00;98605.69;5073755;28;20208;-73
2022/02/16 08:28:28;;;;;;;0.10;0.10;;;;;;;6.76;100.00;98567.38;5068525;28;20182;-72
2022/02/16 08:30:53;;;;;;;0.13;0.13;;;;;;;6.75;100.00;98527.78;5072994;28;20175;-72
2022/02/16 08:33:19;;;;;;;0.20;0.13;;;;;;;6.78;100.00;98529.03;5073907;28;20179;-72
2022/02/16 08:35:44;;;;;;;0.30;0.30;;;;;;;6.85;100.00;98542.88;5073409;28;20166;-73
2022/02/16 08:38:09;;;;;;;0.40;0.40;;;;;;;6.87;100.00;98535.19;5073548;28;20240;-72
2022/02/16 08:40:35;;;;;;;0.90;0.55;;;;;;;6.96;100.00;98538.63;5073372;28;20243;-72
2022/02/16 08:43:00;;;;;;;0.10;0.10;;;;;;;7.04;100.00;98547.78;5073362;28;20398;-72
2022/02/16 08:45:26;;;;;;;0.03;0.03;;;;;;;7.10;100.00;98513.91;5073086;28;20263;-72
2022/02/16 08:47:51;;;;;;;0.13;0.13;;;;;;;7.15;100.00;98517.19;5073478;28;20657;-72
2022/02/16 08:50:16;;;;;;;0.00;0.00;;;;;;;7.21;100.00;98514.22;5071856;28;20194;-73
2022/02/16 08:52:41;;;;;;;0.40;0.27;;;;;;;7.25;100.00;98501.59;5073097;28;20238;-72
2022/02/16 08:55:08;;;;;;;0.40;0.40;;;;;;;7.36;100.00;98487.22;5073139;28;20221;-72
2022/02/16 08:57:36;;;;;;;0.10;0.00;;;;;;;7.43;100.00;98508.41;5073337;28;20178;-72
2022/02/16 09:00:04;;;;;;;0.10;0.10;;;;;;;7.53;100.00;98486.22;5073102;28;20274;-72
2022/02/16 09:02:29;;;;;;;0.20;0.20;;;;;;;7.61;100.00;98411.94;5072997;28;20199;-72
2022/02/16 09:04:55;;;;;;;0.00;0.00;;;;;;;7.64;100.00;98491.97;5072749;28;20653;-72
2022/02/16 09:07:30;;;;;;;0.23;0.23;;;;;;;7.56;100.00;98490.19;5072674;28;20163;-72
2022/02/16 09:09:55;;;;;;;0.20;0.20;;;;;;;7.55;100.00;98481.25;5067578;28;20178;-72
2022/02/16 09:12:22;;;;;;;0.33;0.30;;;;;;;7.50;100.00;98467.06;5075650;28;20304;-72
2022/02/16 09:14:48;;;;;;;0.10;0.10;;;;;;;7.47;100.00;98476.69;5081453;28;20167;-72
2022/02/16 09:17:13;;;;;;;0.10;0.10;;;;;;;7.40;100.00;98460.19;5075972;28;20181;-73
2022/02/16 09:19:39;;;;;;;0.10;0.10;;;;;;;7.30;100.00;98453.25;5072994;28;20193;-72
2022/02/16 09:22:05;;;;;;;0.10;0.10;;;;;;;7.26;100.00;98449.66;5072665;28;20198;-72
2022/02/16 09:24:31;;;;;;;0.30;0.30;;;;;;;7.20;100.00;98459.13;5072494;28;20170;-72
2022/02/16 09:26:57;;;;;;;0.10;0.10;;;;;;;7.25;100.00;98436.41;5072505;28;20269;-72
2022/02/16 09:29:23;;;;;;;0.20;0.20;;;;;;;7.28;100.00;98446.59;5072496;28;20285;-72
2022/02/16 09:31:50;;;;;;;0.27;0.27;;;;;;;7.27;100.00;98440.38;5072857;28;20220;-72
2022/02/16 09:34:15;;;;;;;0.30;0.20;;;;;;;7.28;100.00;98439.22;5072492;28;20174;-72
2022/02/16 09:36:41;;;;;;;0.00;0.00;;;;;;;7.28;100.00;98441.94;5072209;28;20175;-72
2022/02/16 09:39:06;;;;;;;0.07;0.07;;;;;;;7.30;100.00;98414.44;5072692;28;20196;-72
2022/02/16 09:41:32;;;;;;;0.20;0.20;;;;;;;7.35;100.00;98409.56;5072324;28;20673;-72
2022/02/16 09:43:58;;;;;;;0.27;0.17;;;;;;;7.37;100.00;98399.16;5072632;28;20233;-72
2022/02/16 09:46:23;;;;;;;0.67;0.17;;;;;;;7.47;100.00;98387.03;5072171;28;20197;-72
2022/02/16 09:48:50;;;;;;;1.97;1.87;;;;;;;7.61;100.00;98319.53;5072210;28;20170;-72
2022/02/16 09:51:16;;;;;;;0.10;0.10;;;;;;;7.67;100.00;98295.66;5070771;28;20642;-72
2022/02/16 09:53:42;;;;;;;1.67;0.10;;;;;;;7.71;100.00;98356.31;5071901;28;20240;-72
2022/02/16 09:56:07;;;;;;;0.40;0.40;;;;;;;7.76;100.00;98377.81;5071905;28;20175;-72
2022/02/16 09:58:33;;;;;;;0.10;0.10;;;;;;;7.86;100.00;98355.59;5072070;28;20171;-72
2022/02/16 10:01:01;;;;;;;0.10;0.10;;;;;;;7.94;100.00;98373.69;5071848;28;20201;-72
2022/02/16 10:03:26;;;;;;;0.47;0.30;;;;;;;8.00;100.00;98371.53;5070941;28;20304;-72
2022/02/16 10:05:52;;;;;;;0.10;0.10;;;;;;;8.15;100.00;98356.41;5071782;28;20254;-72
2022/02/16 10:08:41;;;;;;;0.00;0.00;;;;;;;8.08;100.00;98384.19;5071766;28;20167;-72
2022/02/16 10:11:06;;;;;;;0.10;0.10;;;;;;;8.02;100.00;98394.53;5071431;28;20529;-72
2022/02/16 10:13:33;;;;;;;0.10;0.10;;;;;;;8.01;100.00;98373.13;5071833;28;20335;-72
2022/02/16 10:15:59;;;;;;;0.20;0.20;;;;;;;8.00;100.00;98379.69;5071679;28;20173;-72
2022/02/16 10:18:24;;;;;;;0.50;0.40;;;;;;;7.99;100.00;98386.28;5071261;28;20170;-72
2022/02/16 10:20:50;;;;;;;0.60;0.40;;;;;;;8.00;100.00;98407.69;5071530;28;20175;-72
2022/02/16 10:23:17;;;;;;;0.23;0.23;;;;;;;8.05;100.00;98412.06;5071406;28;20646;-73
2022/02/16 10:25:50;;;;;;;0.00;0.00;;;;;;;8.03;100.00;98379.78;5071085;28;20201;-72
2022/02/16 10:28:18;;;;;;;1.03;0.30;;;;;;;8.02;100.00;98375.50;5071520;28;20175;-72
2022/02/16 10:31:04;;;;;;;0.10;0.10;;;;;;;8.07;100.00;98372.50;5070985;28;20177;-74
2022/02/16 10:33:35;;;;;;;0.20;0.20;;;;;;;8.06;100.00;98365.50;5071024;28;20607;-72
2022/02/16 10:36:02;;;;;;;0.00;0.00;;;;;;;8.09;100.00;98376.81;5069640;28;20673;-72
2022/02/16 10:38:29;;;;;;;0.10;0.10;;;;;;;8.14;100.00;98388.25;5071018;28;20171;-72
2022/02/16 10:41:06;;;;;;;0.27;0.27;;;;;;;8.23;100.00;98378.00;5070668;28;20171;-71
2022/02/16 10:43:39;;;;;;;0.03;0.03;;;;;;;8.26;100.00;98388.22;5071041;28;20174;-72
2022/02/16 10:46:27;;;;;;;0.00;0.00;;;;;;;8.28;100.00;98372.34;5070853;28;20265;-71
2022/02/16 10:49:18;;;;;;;0.13;0.10;;;;;;;8.31;100.00;98336.28;5070869;28;20260;-71
2022/02/16 10:51:45;;;;;;;0.00;0.00;;;;;;;8.34;100.00;98360.09;5071063;28;20206;-72
2022/02/16 10:54:16;;;;;;;0.10;0.10;;;;;;;8.34;100.00;98373.69;5070705;28;20194;-72
2022/02/16 10:56:43;;;;;;;0.00;0.00;;;;;;;8.39;100.00;98352.81;5069579;28;20194;-72
2022/02/16 10:59:10;;;;;;;0.07;0.00;;;;;;;8.41;100.00;98342.38;5069554;28;20175;-72
2022/02/16 11:01:36;;;;;;;0.00;0.00;;;;;;;8.53;100.00;98331.41;5069528;28;20213;-73
2022/02/16 11:04:06;;;;;;;0.30;0.00;;;;;;;8.59;100.00;98335.47;5070406;28;20177;-73
2022/02/16 11:06:34;;;;;;;0.10;0.10;;;;;;;8.61;100.00;98319.56;5070254;28;20265;-73
2022/02/16 11:09:01;;;;;;;0.83;0.10;;;;;;;8.73;100.00;98333.09;5070497;28;20202;-72
2022/02/16 11:11:30;;;;;;;0.00;0.00;;;;;;;8.80;100.00;98306.03;5070515;28;20174;-72
2022/02/16 11:13:57;;;;;;;0.20;0.00;;;;;;;8.84;100.00;98303.44;5068916;28;20215;-72
2022/02/16 11:16:23;;;;;;;0.00;0.00;;;;;;;8.86;100.00;98306.59;5070185;28;20170;-72
2022/02/16 11:18:50;;;;;;;0.10;0.10;;;;;;;8.86;100.00;98287.53;5070373;28;20171;-72
2022/02/16 11:21:21;;;;;;;0.00;0.00;;;;;;;8.91;100.00;98281.81;5070181;28;20234;-72
2022/02/16 11:23:52;;;;;;;0.20;0.20;;;;;;;8.93;100.00;98280.28;5070295;28;20175;-72
2022/02/16 11:26:41;;;;;;;0.10;0.10;;;;;;;9.03;100.00;98284.44;5069843;28;20229;-72
2022/02/16 11:29:24;;;;;;;0.10;0.10;;;;;;;9.02;100.00;98277.41;5070184;28;20167;-72
2022/02/16 11:31:50;;;;;;;0.00;0.00;;;;;;;9.07;100.00;98285.28;5070143;28;20190;-74
2022/02/16 11:34:22;;;;;;;0.10;0.10;;;;;;;9.10;100.00;98270.16;5070276;28;20166;-72
2022/02/16 11:36:58;;;;;;;0.10;0.10;;;;;;;9.22;100.00;98270.06;5069900;28;20178;-72
2022/02/16 11:39:48;;;;;;;0.00;0.00;;;;;;;9.31;100.00;98265.19;5070162;28;20215;-72
2022/02/16 11:42:18;;;;;;;0.10;0.10;;;;;;;9.35;100.00;98263.34;5070078;28;20212;-72
2022/02/16 11:44:49;;;;;;;0.00;0.00;;;;;;;9.44;100.00;98263.16;5070007;28;20177;-72
2022/02/16 11:47:33;;;;;;;0.17;0.10;;;;;;;9.44;100.00;98265.88;5070055;28;20182;-72
2022/02/16 11:50:19;;;;;;;0.03;0.03;;;;;;;9.44;100.00;98269.38;5070024;28;20503;-72
2022/02/16 11:52:50;;;;;;;0.03;0.03;;;;;;;9.49;100.00;98269.09;5069911;28;20261;-72
2022/02/16 11:55:42;;;;;;;0.07;0.07;;;;;;;9.53;100.00;98269.94;5069812;28;20239;-72
2022/02/16 11:58:10;;;;;;;0.00;0.00;;;;;;;9.63;100.00;98289.63;5070056;28;20202;-72
2022/02/16 12:01:00;;;;;;;0.00;0.00;;;;;;;9.66;100.00;98281.50;5070372;28;20167;-72
2022/02/16 12:03:37;;;;;;;0.00;0.00;;;;;;;9.69;100.00;98291.72;5064649;28;20187;-72
2022/02/16 12:06:08;;;;;;;0.00;0.00;;;;;;;9.69;100.00;98289.00;5069873;28;20691;-72
2022/02/16 12:09:02;;;;;;;0.00;0.00;;;;;;;9.70;100.00;98296.03;5069994;28;20169;-72
2022/02/16 12:11:29;;;;;;;0.10;0.07;;;;;;;9.71;100.00;98289.41;5069721;28;20218;-72
2022/02/16 12:14:14;;;;;;;0.10;0.10;;;;;;;9.75;100.00;98270.41;5069971;28;20561;-72
2022/02/16 12:16:45;;;;;;;0.20;0.10;;;;;;;9.77;100.00;98259.91;5069636;28;20254;-72
2022/02/16 12:19:15;;;;;;;0.00;0.00;;;;;;;9.81;100.00;98255.31;5069814;28;20178;-71